createdAt,value
2023-02-09T00:01:31.550Z,6.18
2023-02-09T00:04:00.852Z,5.10
2023-02-09T00:06:29.877Z,5.13
2023-02-09T00:08:58.674Z,6.13
2023-02-09T00:11:47.766Z,6.18
2023-02-09T00:14:19.202Z,5.25
2023-02-09T00:16:48.605Z,5.28
2023-02-09T00:19:15.699Z,5.28
2023-02-09T00:21:42.683Z,5.47
2023-02-09T00:24:13.263Z,5.38
2023-02-09T00:26:41.506Z,5.40
2023-02-09T00:29:09.420Z,6.25
2023-02-09T00:31:36.987Z,6.60
2023-02-09T00:34:05.026Z,5.95
2023-02-09T00:36:32.430Z,6.13
2023-02-09T00:38:59.876Z,5.90
2023-02-09T00:41:45.280Z,5.55
2023-02-09T00:44:12.500Z,5.65
2023-02-09T00:46:39.540Z,6.18
2023-02-09T00:49:06.743Z,6.20
2023-02-09T00:51:34.480Z,6.10
2023-02-09T00:54:03.320Z,5.55
2023-02-09T00:56:30.389Z,5.13
2023-02-09T00:58:57.315Z,5.40
2023-02-09T01:01:25.421Z,5.70
2023-02-09T01:03:53.365Z,5.78
2023-02-09T01:06:21.026Z,5.72
2023-02-09T01:08:48.110Z,5.22
2023-02-09T01:11:16.057Z,5.70
2023-02-09T01:13:43.765Z,6.47
2023-02-09T01:16:15.319Z,5.30
2023-02-09T01:18:43.266Z,6.07
2023-02-09T01:21:16.989Z,6.03
2023-02-09T01:23:44.966Z,6.57
2023-02-09T01:26:13.252Z,5.75
2023-02-09T01:28:40.982Z,6.00
2023-02-09T01:31:28.944Z,6.35
2023-02-09T01:33:58.464Z,5.97
2023-02-09T01:36:28.906Z,5.78
2023-02-09T01:39:01.292Z,6.80
2023-02-09T01:41:28.539Z,6.55
2023-02-09T01:44:24.623Z,6.45
2023-02-09T01:46:51.574Z,6.07
2023-02-09T01:49:23.438Z,6.95
2023-02-09T01:52:06.082Z,6.03
2023-02-09T01:54:37.704Z,6.15
2023-02-09T01:57:18.724Z,5.95
2023-02-09T01:59:53.773Z,6.45
2023-02-09T02:02:22.399Z,6.70
2023-02-09T02:04:51.157Z,5.47
2023-02-09T02:07:30.294Z,6.15
2023-02-09T02:10:00.959Z,6.93
2023-02-09T02:12:28.136Z,5.85
2023-02-09T02:14:55.093Z,8.13
2023-02-09T02:17:47.672Z,7.50
2023-02-09T02:20:48.111Z,6.80
2023-02-09T02:24:19.281Z,6.85
2023-02-09T02:26:57.955Z,7.15
2023-02-09T02:29:59.430Z,6.50
2023-02-09T02:32:51.200Z,6.60
2023-02-09T02:35:58.019Z,7.18
2023-02-09T02:38:54.360Z,6.57
2023-02-09T02:41:30.380Z,5.30
2023-02-09T02:44:17.263Z,6.32
2023-02-09T02:46:52.662Z,6.40
2023-02-09T02:49:53.134Z,6.60
2023-02-09T02:52:20.062Z,5.27
2023-02-09T02:54:57.251Z,5.88
2023-02-09T02:57:31.244Z,6.57
2023-02-09T03:00:06.474Z,6.60
2023-02-09T03:02:40.150Z,7.07
2023-02-09T03:05:08.495Z,6.80
2023-02-09T03:07:35.484Z,6.40
2023-02-09T03:10:03.407Z,6.72
2023-02-09T03:13:03.876Z,6.50
2023-02-09T03:16:03.656Z,6.15
2023-02-09T03:18:56.934Z,7.10
2023-02-09T03:21:41.301Z,6.50
2023-02-09T03:24:37.503Z,6.20
2023-02-09T03:27:25.179Z,7.35
2023-02-09T03:29:59.086Z,8.27
2023-02-09T03:32:27.259Z,7.05
2023-02-09T03:34:56.059Z,6.75
2023-02-09T03:37:23.854Z,6.80
2023-02-09T03:39:50.769Z,6.68
2023-02-09T03:42:17.724Z,6.88
2023-02-09T03:44:44.633Z,8.45
2023-02-09T03:47:11.711Z,8.80
2023-02-09T03:49:41.419Z,8.10
2023-02-09T03:52:13.236Z,8.85
2023-02-09T03:54:40.428Z,7.82
2023-02-09T03:57:07.848Z,7.28
2023-02-09T03:59:38.096Z,8.27
2023-02-09T04:02:07.581Z,8.40
2023-02-09T04:04:34.652Z,8.57
2023-02-09T04:07:01.576Z,6.72
2023-02-09T04:09:28.718Z,8.38
2023-02-09T04:11:55.992Z,8.52
2023-02-09T04:14:24.218Z,8.23
2023-02-09T04:16:51.153Z,6.63
2023-02-09T04:19:18.067Z,7.35
2023-02-09T04:21:45.008Z,7.13
2023-02-09T04:24:12.083Z,6.70
2023-02-09T04:26:39.092Z,8.70
2023-02-09T04:29:06.084Z,8.32
2023-02-09T04:31:34.730Z,8.90
2023-02-09T04:34:01.847Z,8.18
2023-02-09T04:36:29.005Z,8.23
2023-02-09T04:38:56.065Z,8.07
2023-02-09T04:41:23.208Z,8.82
2023-02-09T04:43:50.224Z,8.15
2023-02-09T04:46:19.043Z,8.38
2023-02-09T04:48:46.724Z,8.50
2023-02-09T04:51:13.931Z,8.85
2023-02-09T04:53:40.848Z,8.75
2023-02-09T04:56:08.345Z,9.45
2023-02-09T04:59:10.355Z,9.27
2023-02-09T05:01:37.259Z,7.55
2023-02-09T05:04:04.312Z,10.02
2023-02-09T05:06:31.237Z,9.13
2023-02-09T05:08:58.171Z,9.10
2023-02-09T05:11:25.733Z,8.23
2023-02-09T05:13:52.715Z,8.73
2023-02-09T05:16:19.694Z,9.02
2023-02-09T05:18:46.756Z,8.45
2023-02-09T05:21:14.323Z,6.90
2023-02-09T05:23:41.763Z,9.20
2023-02-09T05:26:09.016Z,8.80
2023-02-09T05:28:36.395Z,9.30
2023-02-09T05:31:03.510Z,8.82
2023-02-09T05:33:30.524Z,8.50
2023-02-09T05:35:57.416Z,7.72
2023-02-09T05:38:24.503Z,9.60
2023-02-09T05:40:51.658Z,8.38
2023-02-09T05:43:18.908Z,8.57
2023-02-09T05:45:46.657Z,7.38
2023-02-09T05:48:13.705Z,7.80
2023-02-09T05:50:40.711Z,7.32
2023-02-09T05:53:09.270Z,6.28
2023-02-09T05:55:36.235Z,6.20
2023-02-09T05:58:03.274Z,6.28
2023-02-09T06:00:30.391Z,6.05
2023-02-09T06:02:58.486Z,5.95
2023-02-09T06:05:25.907Z,6.63
2023-02-09T06:07:53.126Z,6.63
2023-02-09T06:10:20.261Z,7.05
2023-02-09T06:12:47.349Z,6.70
2023-02-09T06:15:16.174Z,6.82
2023-02-09T06:17:43.323Z,7.22
2023-02-09T06:20:11.195Z,8.32
2023-02-09T06:22:38.112Z,6.95
2023-02-09T06:25:05.416Z,7.22
2023-02-09T06:27:32.349Z,8.23
2023-02-09T06:29:59.386Z,7.70
2023-02-09T06:32:26.330Z,7.95
2023-02-09T06:34:53.286Z,6.85
2023-02-09T06:37:20.207Z,6.80
2023-02-09T06:39:47.109Z,7.10
2023-02-09T06:42:14.010Z,6.47
2023-02-09T06:44:40.925Z,6.85
2023-02-09T06:47:07.872Z,7.43
2023-02-09T06:49:34.769Z,7.85
2023-02-09T06:52:01.948Z,8.10
2023-02-09T06:54:29.268Z,7.88
2023-02-09T06:56:56.222Z,7.38
2023-02-09T06:59:23.451Z,7.72
2023-02-09T07:01:54.602Z,7.53
2023-02-09T07:04:22.260Z,8.75
2023-02-09T07:06:49.310Z,8.07
2023-02-09T07:09:16.455Z,7.22
2023-02-09T07:11:43.768Z,6.93
2023-02-09T07:14:10.774Z,8.32
2023-02-09T07:16:37.676Z,7.50
2023-02-09T07:19:04.582Z,7.53
2023-02-09T07:21:31.534Z,7.93
2023-02-09T07:23:58.481Z,7.68
2023-02-09T07:26:25.507Z,8.60
2023-02-09T07:28:52.459Z,7.70
2023-02-09T07:31:19.614Z,8.10
2023-02-09T07:33:47.005Z,7.88
2023-02-09T07:36:16.249Z,6.88
2023-02-09T07:38:43.795Z,7.57
2023-02-09T07:41:22.085Z,7.97
2023-02-09T07:43:49.080Z,8.15
2023-02-09T07:46:19.374Z,7.80
2023-02-09T07:48:46.890Z,8.18
2023-02-09T07:51:16.269Z,7.90
2023-02-09T07:53:43.560Z,7.32
2023-02-09T07:56:10.469Z,7.85
2023-02-09T07:58:37.430Z,7.35
2023-02-09T08:01:08.380Z,6.63
2023-02-09T08:03:36.922Z,8.02
2023-02-09T08:06:19.587Z,7.28
2023-02-09T08:08:49.799Z,7.38
2023-02-09T08:11:32.655Z,8.63
2023-02-09T08:14:06.127Z,7.40
2023-02-09T08:16:34.421Z,7.35
2023-02-09T08:19:08.778Z,8.20
2023-02-09T08:21:39.724Z,8.25
2023-02-09T08:24:07.658Z,7.30
2023-02-09T08:26:35.643Z,7.28
2023-02-09T08:29:03.230Z,8.00
2023-02-09T08:31:30.356Z,8.02
2023-02-09T08:33:57.325Z,7.82
2023-02-09T08:36:24.307Z,7.20
2023-02-09T08:38:51.284Z,7.70
2023-02-09T08:41:18.575Z,8.15
2023-02-09T08:43:50.096Z,8.30
2023-02-09T08:46:18.035Z,7.13
2023-02-09T08:48:47.055Z,7.95
2023-02-09T08:51:15.871Z,8.20
2023-02-09T08:53:43.954Z,7.72
2023-02-09T08:56:10.878Z,8.15
2023-02-09T08:58:37.955Z,8.50
2023-02-09T09:01:05.570Z,7.43
2023-02-09T09:03:32.805Z,7.75
2023-02-09T09:06:06.189Z,8.23
2023-02-09T09:08:35.654Z,7.57
2023-02-09T09:11:02.630Z,9.13
2023-02-09T09:13:29.759Z,8.98
2023-02-09T09:15:56.681Z,8.82
2023-02-09T09:18:26.470Z,8.52
2023-02-09T09:20:56.086Z,7.97
2023-02-09T09:23:23.580Z,7.57
2023-02-09T09:25:50.609Z,9.25
2023-02-09T09:28:17.574Z,8.98
2023-02-09T09:30:44.576Z,9.25
2023-02-09T09:33:11.608Z,9.38
2023-02-09T09:35:38.672Z,9.80
2023-02-09T09:38:05.597Z,8.85
2023-02-09T09:40:37.291Z,8.70
2023-02-09T09:43:14.896Z,8.90
2023-02-09T09:45:42.003Z,8.70
2023-02-09T09:48:25.747Z,8.95
2023-02-09T09:51:15.694Z,10.00
2023-02-09T09:53:46.891Z,9.82
2023-02-09T09:58:44.864Z,8.05
2023-02-09T10:01:18.137Z,9.32
2023-02-09T10:03:45.357Z,9.82
2023-02-09T10:06:19.394Z,9.77
2023-02-09T10:09:07.828Z,10.70
2023-02-09T10:11:45.707Z,10.38
2023-02-09T10:14:12.650Z,10.00
2023-02-09T10:16:40.630Z,10.70
2023-02-09T10:19:23.629Z,11.48
2023-02-09T10:21:50.621Z,11.68
2023-02-09T10:24:30.731Z,11.45
2023-02-09T10:27:14.713Z,12.18
2023-02-09T10:29:42.506Z,10.48
2023-02-09T10:32:38.836Z,10.75
2023-02-09T10:35:29.322Z,10.25
2023-02-09T10:38:02.316Z,11.40
2023-02-09T10:40:33.167Z,10.18
2023-02-09T10:43:09.739Z,11.77
2023-02-09T10:45:46.606Z,11.20
2023-02-09T10:48:13.571Z,9.82
2023-02-09T10:51:01.789Z,10.73
2023-02-09T10:53:37.695Z,10.18
2023-02-09T10:56:22.464Z,10.60
2023-02-09T10:59:00.261Z,12.30
2023-02-09T11:01:34.449Z,11.10
2023-02-09T11:04:16.902Z,11.20
2023-02-09T11:07:10.130Z,10.77
2023-02-09T11:09:44.376Z,10.70
2023-02-09T11:12:12.982Z,10.77
2023-02-09T11:14:42.446Z,9.77
2023-02-09T11:17:30.818Z,10.95
2023-02-09T11:20:32.060Z,10.30
2023-02-09T11:23:33.308Z,11.50
2023-02-09T11:26:35.747Z,11.45
2023-02-09T11:29:24.194Z,9.55
2023-02-09T11:32:47.407Z,11.50
2023-02-09T11:35:18.912Z,11.30
2023-02-09T11:38:05.963Z,11.65
2023-02-09T11:40:49.093Z,11.60
2023-02-09T11:43:36.336Z,11.38
2023-02-09T11:46:17.255Z,11.20
2023-02-09T11:49:04.062Z,11.80
2023-02-09T11:51:38.169Z,12.20
2023-02-09T11:54:22.228Z,12.00
2023-02-09T11:57:11.730Z,11.43
2023-02-09T11:59:49.586Z,13.95
2023-02-09T12:02:53.921Z,13.25
2023-02-09T12:05:22.616Z,11.75
2023-02-09T12:08:22.317Z,14.18
2023-02-09T12:11:15.591Z,13.25
2023-02-09T12:14:12.791Z,13.40
2023-02-09T12:16:49.510Z,12.48
2023-02-09T12:19:34.202Z,12.60
2023-02-09T12:22:35.190Z,13.50
2023-02-09T12:25:16.701Z,13.27
2023-02-09T12:28:10.265Z,12.70
2023-02-09T12:30:40.127Z,12.57
2023-02-09T12:33:31.237Z,12.13
2023-02-09T12:36:10.183Z,12.45
2023-02-09T12:38:56.856Z,13.18
2023-02-09T12:41:41.059Z,11.85
2023-02-09T12:44:11.058Z,11.73
2023-02-09T12:46:55.628Z,12.70
2023-02-09T12:49:28.690Z,12.35
2023-02-09T12:52:01.756Z,13.05
2023-02-09T12:54:48.029Z,12.43
2023-02-09T12:57:15.958Z,11.65
2023-02-09T13:00:00.709Z,12.95
2023-02-09T13:02:52.478Z,11.95
2023-02-09T13:05:42.034Z,13.02
2023-02-09T13:08:13.089Z,12.55
2023-02-09T13:13:10.939Z,8.88
2023-02-09T13:16:37.049Z,12.45
2023-02-09T13:19:10.004Z,10.90
2023-02-09T13:22:05.400Z,11.50
2023-02-09T13:24:44.785Z,11.57
2023-02-09T13:27:25.252Z,12.75
2023-02-09T13:29:55.307Z,12.07
2023-02-09T13:32:40.691Z,12.32
2023-02-09T13:35:32.884Z,12.18
2023-02-09T13:38:15.816Z,12.80
2023-02-09T13:40:50.804Z,14.00
2023-02-09T13:43:40.172Z,13.32
2023-02-09T13:46:07.171Z,13.18
2023-02-09T13:48:38.055Z,14.32
2023-02-09T13:51:18.543Z,14.93
2023-02-09T13:54:03.128Z,13.60
2023-02-09T13:56:32.309Z,13.07
2023-02-09T13:59:00.215Z,13.07
2023-02-09T14:01:36.523Z,12.52
2023-02-09T14:04:05.373Z,13.70
2023-02-09T14:07:11.456Z,12.77
2023-02-09T14:09:50.061Z,12.82
2023-02-09T14:12:49.582Z,13.93
2023-02-09T14:15:37.013Z,12.63
2023-02-09T14:18:20.068Z,12.73
2023-02-09T14:21:22.930Z,12.93
2023-02-09T14:24:20.198Z,13.13
2023-02-09T14:26:53.104Z,13.23
2023-02-09T14:29:37.992Z,13.35
2023-02-09T14:32:40.280Z,13.15
2023-02-09T14:35:30.089Z,13.82
2023-02-09T14:38:00.449Z,11.38
2023-02-09T14:40:27.526Z,13.00
2023-02-09T14:43:27.226Z,13.32
2023-02-09T14:46:01.801Z,13.18
2023-02-09T14:48:30.420Z,12.50
2023-02-09T14:51:10.163Z,13.38
2023-02-09T14:53:37.197Z,12.55
2023-02-09T14:56:04.362Z,12.80
2023-02-09T14:58:33.723Z,13.40
2023-02-09T15:01:02.754Z,13.10
2023-02-09T15:03:29.791Z,13.27
2023-02-09T15:06:02.841Z,13.85
2023-02-09T15:08:35.069Z,14.35
2023-02-09T15:11:28.927Z,13.95
2023-02-09T15:14:03.843Z,12.95
2023-02-09T15:16:31.768Z,13.52
2023-02-09T15:18:58.991Z,12.82
2023-02-09T15:21:25.892Z,13.32
2023-02-09T15:23:52.880Z,13.02
2023-02-09T15:26:22.620Z,12.45
2023-02-09T15:28:49.757Z,12.63
2023-02-09T15:31:16.758Z,13.07
2023-02-09T15:33:43.838Z,12.45
2023-02-09T15:36:18.143Z,12.77
2023-02-09T15:38:45.089Z,12.88
2023-02-09T15:41:30.556Z,12.73
2023-02-09T15:44:16.165Z,13.43
2023-02-09T15:47:04.500Z,11.63
2023-02-09T15:49:31.899Z,12.30
2023-02-09T15:51:58.832Z,12.32
2023-02-09T15:54:31.668Z,13.15
2023-02-09T15:57:00.250Z,12.68
2023-02-09T15:59:27.142Z,12.10
2023-02-09T16:01:54.084Z,14.15
2023-02-09T16:04:21.014Z,14.00
2023-02-09T16:06:53.923Z,12.00
2023-02-09T16:09:27.657Z,12.85
2023-02-09T16:11:54.871Z,14.15
2023-02-09T16:14:26.049Z,13.50
2023-02-09T16:16:53.138Z,13.05
2023-02-09T16:19:21.189Z,13.40
2023-02-09T16:21:54.007Z,15.10
2023-02-09T16:24:33.467Z,15.05
2023-02-09T16:27:04.411Z,14.75
2023-02-09T16:29:31.325Z,14.93
2023-02-09T16:31:58.226Z,13.52
2023-02-09T16:34:25.164Z,14.63
2023-02-09T16:36:52.154Z,14.00
2023-02-09T16:39:21.926Z,14.43
2023-02-09T16:41:51.638Z,13.70
2023-02-09T16:44:23.304Z,13.75
2023-02-09T16:46:56.360Z,13.10
2023-02-09T16:49:34.784Z,12.65
2023-02-09T16:52:11.662Z,13.82
2023-02-09T16:54:46.914Z,12.80
2023-02-09T16:57:18.133Z,11.93
2023-02-09T16:59:45.592Z,12.60
2023-02-09T17:02:36.025Z,13.35
2023-02-09T17:05:19.029Z,13.30
2023-02-09T17:07:54.606Z,14.32
2023-02-09T17:10:28.664Z,14.00
2023-02-09T17:12:55.757Z,13.68
2023-02-09T17:15:31.019Z,13.60
2023-02-09T17:18:07.216Z,16.73
2023-02-09T17:20:42.989Z,14.25
2023-02-09T17:23:21.360Z,14.10
2023-02-09T17:25:51.485Z,16.75
2023-02-09T17:28:19.268Z,19.48
2023-02-09T17:30:47.892Z,16.15
2023-02-09T17:33:34.392Z,15.77
2023-02-09T17:38:50.506Z,13.02
2023-02-09T17:41:28.202Z,11.27
2023-02-09T17:43:58.816Z,12.95
2023-02-09T17:46:27.812Z,13.88
2023-02-09T17:48:54.787Z,15.25
2023-02-09T17:51:37.328Z,13.48
2023-02-09T17:54:06.038Z,12.65
2023-02-09T17:56:33.434Z,12.23
2023-02-09T17:59:02.976Z,12.85
2023-02-09T18:01:31.774Z,10.98
2023-02-09T18:04:01.987Z,12.32
2023-02-09T18:06:39.728Z,11.60
2023-02-09T18:09:10.806Z,11.65
2023-02-09T18:14:26.495Z,11.32
2023-02-09T18:16:55.012Z,11.65
2023-02-09T18:19:23.969Z,11.68
2023-02-09T18:21:59.806Z,10.90
2023-02-09T18:24:30.918Z,11.15
2023-02-09T18:29:31.623Z,9.98
2023-02-09T18:32:00.698Z,10.15
2023-02-09T18:34:28.433Z,11.85
2023-02-09T18:36:55.702Z,10.07
2023-02-09T18:39:22.723Z,10.43
2023-02-09T18:41:54.067Z,11.07
2023-02-09T18:44:28.910Z,11.35
2023-02-09T18:47:00.606Z,13.05
2023-02-09T18:49:28.125Z,10.65
2023-02-09T18:51:56.935Z,10.98
2023-02-09T18:54:23.917Z,12.68
2023-02-09T18:56:52.675Z,11.85
2023-02-09T18:59:19.630Z,10.82
2023-02-09T19:01:46.730Z,10.35
2023-02-09T19:04:13.747Z,10.35
2023-02-09T19:06:40.675Z,10.02
2023-02-09T19:09:07.668Z,10.23
2023-02-09T19:11:35.629Z,9.23
2023-02-09T19:14:20.836Z,10.27
2023-02-09T19:16:47.753Z,9.23
2023-02-09T19:19:16.043Z,10.65
2023-02-09T19:21:42.975Z,10.50
2023-02-09T19:24:09.886Z,10.40
2023-02-09T19:26:36.819Z,9.30
2023-02-09T19:29:03.722Z,9.73
2023-02-09T19:31:30.709Z,10.38
2023-02-09T19:33:57.909Z,9.90
2023-02-09T19:36:27.786Z,9.70
2023-02-09T19:38:56.253Z,11.25
2023-02-09T19:41:25.446Z,10.98
2023-02-09T19:43:57.327Z,11.13
2023-02-09T19:46:25.398Z,10.65
2023-02-09T19:48:53.756Z,10.52
2023-02-09T19:51:21.165Z,9.80
2023-02-09T19:53:48.524Z,11.38
2023-02-09T19:56:19.240Z,11.63
2023-02-09T19:58:46.719Z,11.60
2023-02-09T20:01:13.632Z,10.18
2023-02-09T20:03:40.599Z,12.00
2023-02-09T20:06:10.700Z,10.82
2023-02-09T20:08:38.165Z,11.13
2023-02-09T20:11:16.645Z,10.57
2023-02-09T20:13:43.686Z,10.88
2023-02-09T20:16:16.817Z,11.52
2023-02-09T20:18:44.523Z,10.68
2023-02-09T20:21:12.435Z,11.77
2023-02-09T20:23:39.351Z,11.55
2023-02-09T20:26:12.690Z,10.90
2023-02-09T20:28:39.849Z,11.18
2023-02-09T20:31:08.050Z,10.98
2023-02-09T20:33:37.538Z,10.38
2023-02-09T20:36:09.164Z,11.18
2023-02-09T20:38:37.213Z,11.45
2023-02-09T20:41:10.423Z,11.68
2023-02-09T20:43:56.658Z,11.73
2023-02-09T20:46:45.094Z,12.18
2023-02-09T20:49:14.784Z,11.55
2023-02-09T20:51:42.059Z,11.40
2023-02-09T20:54:09.435Z,11.05
2023-02-09T20:56:36.607Z,11.38
2023-02-09T20:59:05.618Z,10.85
2023-02-09T21:01:33.015Z,11.57
2023-02-09T21:04:00.370Z,11.43
2023-02-09T21:06:27.881Z,11.85
2023-02-09T21:08:55.277Z,12.70
2023-02-09T21:11:22.315Z,11.23
2023-02-09T21:13:49.245Z,11.85
2023-02-09T21:16:16.556Z,10.98
2023-02-09T21:18:45.658Z,11.57
2023-02-09T21:21:16.797Z,11.00
2023-02-09T21:26:16.461Z,10.65
2023-02-09T21:28:43.961Z,11.57
2023-02-09T21:31:17.055Z,11.65
2023-02-09T21:33:44.302Z,10.80
2023-02-09T21:36:11.283Z,12.15
2023-02-09T21:38:41.439Z,11.27
2023-02-09T21:41:37.422Z,11.98
2023-02-09T21:44:05.779Z,10.02
2023-02-09T21:46:34.432Z,11.15
2023-02-09T21:49:01.691Z,11.13
2023-02-09T21:51:28.603Z,11.48
2023-02-09T21:53:55.578Z,11.75
2023-02-09T21:56:22.556Z,12.20
2023-02-09T21:58:49.558Z,12.40
2023-02-09T22:01:16.637Z,13.30
2023-02-09T22:03:43.891Z,12.65
2023-02-09T22:06:11.220Z,13.25
2023-02-09T22:08:38.159Z,12.57
2023-02-09T22:11:06.136Z,11.27
2023-02-09T22:13:33.977Z,12.00
2023-02-09T22:16:05.883Z,11.75
2023-02-09T22:18:33.378Z,11.18
2023-02-09T22:21:00.451Z,12.27
2023-02-09T22:23:27.419Z,12.93
2023-02-09T22:26:02.173Z,12.27
2023-02-09T22:28:29.365Z,12.38
2023-02-09T22:30:56.958Z,12.30
2023-02-09T22:33:24.137Z,13.23
2023-02-09T22:35:51.060Z,12.32
2023-02-09T22:38:17.996Z,12.75
2023-02-09T22:40:44.907Z,13.23
2023-02-09T22:43:11.792Z,13.20
2023-02-09T22:45:38.689Z,12.90
2023-02-09T22:48:05.778Z,12.25
2023-02-09T22:50:32.799Z,13.73
2023-02-09T22:52:59.792Z,13.77
2023-02-09T22:55:26.714Z,13.02
2023-02-09T22:57:53.653Z,13.20
2023-02-09T23:00:20.671Z,12.75
2023-02-09T23:02:48.725Z,13.30
2023-02-09T23:05:15.707Z,13.32
2023-02-09T23:07:45.034Z,12.73
2023-02-09T23:10:12.741Z,12.32
2023-02-09T23:12:39.755Z,12.48
2023-02-09T23:15:07.525Z,13.23
2023-02-09T23:17:34.472Z,12.48
2023-02-09T23:20:01.363Z,12.48
2023-02-09T23:22:28.277Z,12.88
2023-02-09T23:24:55.217Z,12.75
2023-02-09T23:27:22.159Z,14.10
2023-02-09T23:29:49.104Z,14.95
2023-02-09T23:32:16.005Z,13.75
2023-02-09T23:34:42.959Z,15.27
2023-02-09T23:37:18.564Z,13.70
2023-02-09T23:39:55.788Z,13.48
2023-02-09T23:42:22.779Z,12.63
2023-02-09T23:44:49.686Z,13.52
2023-02-09T23:47:16.703Z,13.75
2023-02-09T23:49:43.666Z,12.80
2023-02-09T23:52:10.608Z,12.88
2023-02-09T23:54:37.526Z,14.80
2023-02-09T23:57:04.458Z,13.20
2023-02-09T23:59:31.379Z,13.80
